METAR Torp

ENTO 160920Z 36011KT 5000 DZ VV007 06/06 Q1007 TEMPO 4000 -RADZ BR OVC004

METAR Gardermoen

ENGM 160920Z 01009KT 6000 -DZ FEW005 SCT008 BKN012 05/05 Q1008 TEMPO 4000 BR SCT004 BKN008

Webcam Kjeller